createdAt,value
2023-02-02T00:00:23.567Z,84.02
2023-02-02T00:05:26.232Z,84.26
2023-02-02T00:10:29.221Z,83.91
2023-02-02T00:15:34.545Z,83.63
2023-02-02T00:20:37.223Z,83.14
2023-02-02T00:25:39.787Z,84.22
2023-02-02T00:30:42.408Z,83.41
2023-02-02T00:35:45.072Z,83.43
2023-02-02T00:40:47.657Z,83.09
2023-02-02T00:45:50.365Z,82.47
2023-02-02T00:50:53.667Z,82.66
2023-02-02T00:55:56.225Z,82.97
2023-02-02T01:00:58.946Z,83.05
2023-02-02T01:06:01.495Z,82.53
2023-02-02T01:11:04.283Z,82.37
2023-02-02T01:16:07.580Z,82.54
2023-02-02T01:21:11.744Z,83.08
2023-02-02T01:26:15.190Z,82.71
2023-02-02T01:31:19.569Z,83.34
2023-02-02T01:36:24.215Z,83.44
2023-02-02T01:41:27.899Z,82.37
2023-02-02T01:46:37.427Z,82.76
2023-02-02T01:51:48.949Z,83.58
2023-02-02T01:56:58.003Z,83.25
2023-02-02T02:02:02.677Z,83.46
2023-02-02T02:07:06.368Z,83.51
2023-02-02T02:12:14.523Z,83.12
2023-02-02T02:17:40.755Z,82.96
2023-02-02T02:23:27.203Z,82.44
2023-02-02T02:28:48.323Z,82.60
2023-02-02T02:34:14.195Z,82.54
2023-02-02T02:39:35.181Z,82.27
2023-02-02T02:44:37.826Z,81.23
2023-02-02T02:49:45.867Z,81.94
2023-02-02T02:54:54.922Z,81.64
2023-02-02T03:00:24.627Z,81.27
2023-02-02T03:05:37.127Z,81.37
2023-02-02T03:10:42.762Z,81.13
2023-02-02T03:15:46.494Z,81.41
2023-02-02T03:20:49.081Z,81.38
2023-02-02T03:25:51.922Z,81.31
2023-02-02T03:30:55.346Z,80.90
2023-02-02T03:35:57.996Z,80.73
2023-02-02T03:41:00.693Z,80.75
2023-02-02T03:46:05.675Z,80.45
2023-02-02T03:51:11.775Z,81.07
2023-02-02T03:56:15.315Z,80.37
2023-02-02T04:01:18.096Z,79.89
2023-02-02T04:06:20.854Z,79.95
2023-02-02T04:11:23.451Z,79.91
2023-02-02T04:16:26.186Z,80.10
2023-02-02T04:21:28.749Z,79.52
2023-02-02T04:26:31.407Z,79.76
2023-02-02T04:31:34.056Z,79.37
2023-02-02T04:36:36.759Z,79.52
2023-02-02T04:41:39.377Z,79.51
2023-02-02T04:46:43.449Z,79.51
2023-02-02T04:51:46.151Z,80.23
2023-02-02T04:56:48.829Z,79.98
2023-02-02T05:01:51.489Z,79.82
2023-02-02T05:06:54.223Z,79.50
2023-02-02T05:11:56.761Z,79.75
2023-02-02T05:16:59.517Z,79.96
2023-02-02T05:22:02.148Z,79.95
2023-02-02T05:27:04.867Z,80.00
2023-02-02T05:32:07.509Z,80.37
2023-02-02T05:37:10.147Z,79.67
2023-02-02T05:42:12.680Z,80.27
2023-02-02T05:47:15.292Z,80.03
2023-02-02T05:52:22.500Z,79.62
2023-02-02T05:57:25.021Z,79.59
2023-02-02T06:02:27.606Z,79.06
2023-02-02T06:07:30.204Z,79.54
2023-02-02T06:12:32.778Z,78.94
2023-02-02T06:17:35.411Z,78.77
2023-02-02T06:22:38.114Z,78.93
2023-02-02T06:27:40.737Z,78.99
2023-02-02T06:32:43.348Z,78.61
2023-02-02T06:37:45.943Z,78.44
2023-02-02T06:42:48.487Z,78.72
2023-02-02T06:47:51.596Z,78.39
2023-02-02T06:52:54.268Z,77.99
2023-02-02T06:58:01.462Z,78.28
2023-02-02T07:03:04.465Z,77.74
2023-02-02T07:08:07.314Z,76.89
2023-02-02T07:13:10.148Z,76.74
2023-02-02T07:18:12.657Z,77.20
2023-02-02T07:23:15.201Z,77.45
2023-02-02T07:28:17.716Z,76.69
2023-02-02T07:33:20.280Z,76.38
2023-02-02T07:38:22.785Z,76.17
2023-02-02T07:43:25.336Z,75.20
2023-02-02T07:48:31.584Z,74.68
2023-02-02T07:53:35.179Z,74.45
2023-02-02T07:58:38.279Z,74.05
2023-02-02T08:03:42.951Z,73.95
2023-02-02T08:08:46.740Z,73.17
2023-02-02T08:13:51.749Z,72.47
2023-02-02T08:18:54.318Z,71.95
2023-02-02T08:23:57.145Z,72.35
2023-02-02T08:29:02.803Z,72.03
2023-02-02T08:34:05.988Z,71.00
2023-02-02T08:39:12.173Z,70.88
2023-02-02T08:44:16.481Z,70.61
2023-02-02T08:49:19.407Z,71.16
2023-02-02T08:54:22.128Z,70.63
2023-02-02T08:59:25.037Z,71.09
2023-02-02T09:04:27.658Z,70.56
2023-02-02T09:09:30.879Z,69.78
2023-02-02T09:14:34.123Z,69.64
2023-02-02T09:19:36.833Z,69.57
2023-02-02T09:24:39.379Z,68.72
2023-02-02T09:29:42.013Z,68.96
2023-02-02T09:34:44.799Z,68.54
2023-02-02T09:39:47.548Z,68.61
2023-02-02T09:44:59.718Z,68.09
2023-02-02T09:50:28.440Z,67.92
2023-02-02T09:55:37.130Z,67.10
2023-02-02T10:00:48.560Z,67.27
2023-02-02T10:06:35.628Z,66.64
2023-02-02T10:12:00.457Z,66.68
2023-02-02T10:17:26.143Z,66.71
2023-02-02T10:22:33.245Z,66.74
2023-02-02T10:27:39.479Z,66.89
2023-02-02T10:33:00.978Z,66.59
2023-02-02T10:38:32.445Z,66.60
2023-02-02T10:43:46.832Z,66.04
2023-02-02T10:48:50.724Z,65.56
2023-02-02T10:53:55.378Z,65.80
2023-02-02T10:59:01.328Z,65.44
2023-02-02T11:04:22.544Z,65.01
2023-02-02T11:09:31.435Z,65.00
2023-02-02T11:14:45.076Z,65.23
2023-02-02T11:19:50.033Z,65.02
2023-02-02T11:24:53.969Z,65.60
2023-02-02T11:29:59.493Z,65.01
2023-02-02T11:35:01.983Z,64.67
2023-02-02T11:40:18.092Z,65.10
2023-02-02T11:45:37.269Z,64.86
2023-02-02T11:50:47.559Z,64.69
2023-02-02T11:55:50.910Z,65.07
2023-02-02T12:00:57.344Z,64.96
2023-02-02T12:06:02.324Z,64.72
2023-02-02T12:11:07.292Z,65.00
2023-02-02T12:16:15.817Z,65.21
2023-02-02T12:21:38.667Z,65.20
2023-02-02T12:26:50.388Z,65.12
2023-02-02T12:32:18.094Z,65.82
2023-02-02T12:37:24.741Z,66.04
2023-02-02T12:43:00.568Z,65.22
2023-02-02T12:48:12.463Z,66.09
2023-02-02T12:53:20.984Z,66.36
2023-02-02T12:58:58.673Z,66.66
2023-02-02T13:04:14.088Z,66.34
2023-02-02T13:09:29.869Z,66.13
2023-02-02T13:14:38.343Z,66.33
2023-02-02T13:19:44.892Z,66.76
2023-02-02T13:24:50.209Z,67.30
2023-02-02T13:30:25.606Z,68.75
2023-02-02T13:35:45.745Z,68.75
2023-02-02T13:40:50.174Z,70.08
2023-02-02T13:46:12.438Z,70.99
2023-02-02T13:51:33.880Z,71.25
2023-02-02T13:56:56.741Z,71.31
2023-02-02T14:02:00.120Z,71.68
2023-02-02T14:07:05.738Z,72.24
2023-02-02T14:12:11.233Z,71.81
2023-02-02T14:17:13.712Z,72.84
2023-02-02T14:22:54.828Z,73.31
2023-02-02T14:28:02.383Z,72.62
2023-02-02T14:33:27.471Z,72.85
2023-02-02T14:38:36.479Z,73.17
2023-02-02T14:43:49.880Z,73.60
2023-02-02T14:48:57.251Z,72.72
2023-02-02T14:54:02.615Z,73.35
2023-02-02T14:59:07.606Z,73.46
2023-02-02T15:04:30.281Z,73.37
2023-02-02T15:09:39.411Z,73.12
2023-02-02T15:15:14.410Z,73.25
2023-02-02T15:20:40.402Z,73.11
2023-02-02T15:25:59.650Z,73.19
2023-02-02T15:31:09.070Z,74.09
2023-02-02T15:36:18.767Z,74.28
2023-02-02T15:41:45.264Z,74.46
2023-02-02T15:46:49.013Z,74.42
2023-02-02T15:51:58.175Z,74.09
2023-02-02T15:57:02.950Z,73.99
2023-02-02T16:02:11.711Z,74.48
2023-02-02T16:07:19.951Z,73.84
2023-02-02T16:12:23.793Z,74.10
2023-02-02T16:17:32.811Z,74.39
2023-02-02T16:22:38.081Z,74.41
2023-02-02T16:27:46.247Z,74.23
2023-02-02T16:32:48.896Z,74.83
2023-02-02T16:37:51.460Z,74.53
2023-02-02T16:43:15.662Z,74.60
2023-02-02T16:48:45.089Z,74.78
2023-02-02T16:53:59.333Z,75.23
2023-02-02T16:59:15.364Z,75.42
2023-02-02T17:04:36.938Z,75.44
2023-02-02T17:09:41.258Z,75.26
2023-02-02T17:14:54.321Z,75.32
2023-02-02T17:19:56.987Z,75.30
2023-02-02T17:25:00.171Z,75.66
2023-02-02T17:30:04.758Z,76.18
2023-02-02T17:35:15.201Z,76.32
2023-02-02T17:40:19.884Z,76.28
2023-02-02T17:45:34.099Z,76.12
2023-02-02T17:50:37.432Z,75.98
2023-02-02T17:55:42.615Z,76.39
2023-02-02T18:00:54.048Z,76.42
2023-02-02T18:06:02.600Z,75.93
2023-02-02T18:11:05.391Z,76.34
2023-02-02T18:16:11.503Z,76.38
2023-02-02T18:21:14.337Z,76.50
2023-02-02T18:26:20.531Z,76.73
2023-02-02T18:31:26.924Z,77.24
2023-02-02T18:36:34.064Z,77.63
2023-02-02T18:41:38.920Z,78.06
2023-02-02T18:46:41.885Z,77.82
2023-02-02T18:51:44.702Z,78.78
2023-02-02T18:56:47.455Z,79.41
2023-02-02T19:01:50.140Z,79.08
2023-02-02T19:07:12.080Z,79.22
2023-02-02T19:12:15.577Z,79.69
2023-02-02T19:17:22.522Z,80.25
2023-02-02T19:22:30.600Z,80.64
2023-02-02T19:27:36.279Z,80.10
2023-02-02T19:32:39.817Z,79.85
2023-02-02T19:37:43.406Z,80.28
2023-02-02T19:42:57.684Z,81.42
2023-02-02T19:48:06.828Z,81.82
2023-02-02T19:53:21.537Z,81.83
2023-02-02T19:58:29.665Z,82.44
2023-02-02T20:03:43.034Z,82.15
2023-02-02T20:08:46.716Z,82.15
2023-02-02T20:13:51.095Z,82.23
2023-02-02T20:18:56.752Z,82.71
2023-02-02T20:23:59.517Z,82.63
2023-02-02T20:29:23.629Z,82.75
2023-02-02T20:34:32.921Z,82.80
2023-02-02T20:39:39.844Z,82.57
2023-02-02T20:44:42.830Z,82.54
2023-02-02T20:49:45.815Z,83.02
2023-02-02T20:54:48.988Z,83.84
2023-02-02T20:59:57.540Z,83.81
2023-02-02T21:05:01.482Z,83.94
2023-02-02T21:10:06.883Z,83.70
2023-02-02T21:15:10.195Z,83.86
2023-02-02T21:20:15.068Z,83.89
2023-02-02T21:25:17.737Z,83.51
2023-02-02T21:30:20.359Z,83.65
2023-02-02T21:35:24.804Z,83.97
2023-02-02T21:40:32.956Z,83.64
2023-02-02T21:45:37.780Z,83.79
2023-02-02T21:50:41.753Z,83.75
2023-02-02T21:55:46.097Z,83.87
2023-02-02T22:00:50.153Z,83.86
2023-02-02T22:05:59.935Z,83.77
2023-02-02T22:11:02.881Z,83.54
2023-02-02T22:16:17.742Z,84.33
2023-02-02T22:21:21.217Z,83.52
2023-02-02T22:26:34.192Z,84.08
2023-02-02T22:31:36.820Z,84.10
2023-02-02T22:36:39.517Z,84.37
2023-02-02T22:41:42.345Z,84.38
2023-02-02T22:46:45.005Z,84.63
2023-02-02T22:51:47.644Z,84.31
2023-02-02T22:56:50.218Z,83.59
2023-02-02T23:01:52.743Z,82.96
2023-02-02T23:06:55.289Z,83.64
2023-02-02T23:11:57.883Z,83.71
2023-02-02T23:17:00.425Z,83.88
2023-02-02T23:22:03.134Z,84.19
2023-02-02T23:27:05.825Z,83.78
2023-02-02T23:32:08.473Z,84.22
2023-02-02T23:37:11.430Z,84.31
2023-02-02T23:42:14.134Z,85.01
2023-02-02T23:47:16.903Z,84.01
2023-02-02T23:52:19.571Z,83.83
2023-02-02T23:57:22.234Z,84.22
